Mountain View, Hawaii
Current Conditions -  °F | °C
As of 1:53 PM on Friday 19 Dec 2014 (Local Time) from PHTO Reporting Station
Few Clouds Few Clouds  
Wind Chill: 81°   Ceiling: Unl
Heat Index: 83°   Visibility: 10mi
Dew Point: 67°   Wind: 10mph
Humidity: 62%   Direction: 140°SE
Pressure: 30.04"   Gusts: NA
Location:  19.55°N, 155.1°W
Report Text: PHTO 192353Z 14009KT 10SM FEW040 27/19 A3004 RMK AO2 SLP172 60000 T02720194 10272 20211 58032 $
Loading
Personal Weather Stations






























Interactive Weather Map New forecast layout! Learn more

10-Day Weather Forecast

Advertisements
Track Severe Weather on mobile